sensor_id;sensor_type;location;lat;lon;timestamp;P1;durP1;ratioP1;P2;durP2;ratioP2
64712;SDS011;51140;45.340;5.980;2023-02-11T00:01:24;24.85;;;13.02;;
64712;SDS011;51140;45.340;5.980;2023-02-11T00:03:52;27.20;;;13.50;;
64712;SDS011;51140;45.340;5.980;2023-02-11T00:06:18;29.30;;;13.63;;
64712;SDS011;51140;45.340;5.980;2023-02-11T00:08:43;24.65;;;12.15;;
64712;SDS011;51140;45.340;5.980;2023-02-11T00:11:13;25.42;;;12.32;;
64712;SDS011;51140;45.340;5.980;2023-02-11T00:13:40;21.35;;;11.07;;
64712;SDS011;51140;45.340;5.980;2023-02-11T00:16:09;23.45;;;12.05;;
64712;SDS011;51140;45.340;5.980;2023-02-11T00:18:37;21.38;;;10.95;;
64712;SDS011;51140;45.340;5.980;2023-02-11T00:21:09;24.17;;;12.43;;
64712;SDS011;51140;45.340;5.980;2023-02-11T00:23:42;25.42;;;11.82;;
64712;SDS011;51140;45.340;5.980;2023-02-11T00:26:12;25.63;;;11.80;;
64712;SDS011;51140;45.340;5.980;2023-02-11T00:28:43;23.55;;;12.48;;
64712;SDS011;51140;45.340;5.980;2023-02-11T00:31:09;24.77;;;11.95;;
64712;SDS011;51140;45.340;5.980;2023-02-11T00:33:35;25.85;;;12.13;;
64712;SDS011;51140;45.340;5.980;2023-02-11T00:36:04;25.52;;;12.43;;
64712;SDS011;51140;45.340;5.980;2023-02-11T00:38:31;22.85;;;11.48;;
64712;SDS011;51140;45.340;5.980;2023-02-11T00:40:57;24.83;;;12.45;;
64712;SDS011;51140;45.340;5.980;2023-02-11T00:43:22;24.35;;;11.93;;
64712;SDS011;51140;45.340;5.980;2023-02-11T00:45:48;24.15;;;12.45;;
64712;SDS011;51140;45.340;5.980;2023-02-11T00:48:14;27.48;;;11.90;;
64712;SDS011;51140;45.340;5.980;2023-02-11T00:50:39;22.10;;;11.63;;
64712;SDS011;51140;45.340;5.980;2023-02-11T00:53:04;25.25;;;11.95;;
64712;SDS011;51140;45.340;5.980;2023-02-11T00:55:30;22.15;;;11.38;;
64712;SDS011;51140;45.340;5.980;2023-02-11T00:57:55;20.70;;;11.30;;
64712;SDS011;51140;45.340;5.980;2023-02-11T01:00:22;26.52;;;11.85;;
64712;SDS011;51140;45.340;5.980;2023-02-11T01:02:48;23.70;;;11.95;;
64712;SDS011;51140;45.340;5.980;2023-02-11T01:05:13;22.02;;;12.00;;
64712;SDS011;51140;45.340;5.980;2023-02-11T01:07:39;24.92;;;12.23;;
64712;SDS011;51140;45.340;5.980;2023-02-11T01:10:04;22.50;;;11.20;;
64712;SDS011;51140;45.340;5.980;2023-02-11T01:12:30;27.30;;;12.88;;
64712;SDS011;51140;45.340;5.980;2023-02-11T01:14:55;24.50;;;11.75;;
64712;SDS011;51140;45.340;5.980;2023-02-11T01:17:20;26.58;;;12.95;;
64712;SDS011;51140;45.340;5.980;2023-02-11T01:19:46;25.92;;;12.63;;
64712;SDS011;51140;45.340;5.980;2023-02-11T01:22:11;27.67;;;12.63;;
64712;SDS011;51140;45.340;5.980;2023-02-11T01:24:37;24.92;;;12.75;;
64712;SDS011;51140;45.340;5.980;2023-02-11T01:27:02;28.10;;;13.32;;
64712;SDS011;51140;45.340;5.980;2023-02-11T01:29:27;26.70;;;12.27;;
64712;SDS011;51140;45.340;5.980;2023-02-11T01:31:53;21.50;;;11.75;;
64712;SDS011;51140;45.340;5.980;2023-02-11T01:34:18;25.50;;;12.55;;
64712;SDS011;51140;45.340;5.980;2023-02-11T01:36:44;23.05;;;11.65;;
64712;SDS011;51140;45.340;5.980;2023-02-11T01:39:09;23.95;;;12.20;;
64712;SDS011;51140;45.340;5.980;2023-02-11T01:41:35;22.25;;;10.73;;
64712;SDS011;51140;45.340;5.980;2023-02-11T01:46:57;25.30;;;12.20;;
64712;SDS011;51140;45.340;5.980;2023-02-11T01:49:29;28.45;;;12.52;;
64712;SDS011;51140;45.340;5.980;2023-02-11T01:52:04;28.42;;;12.27;;
64712;SDS011;51140;45.340;5.980;2023-02-11T01:54:35;26.25;;;12.90;;
64712;SDS011;51140;45.340;5.980;2023-02-11T01:57:24;22.20;;;11.30;;
64712;SDS011;51140;45.340;5.980;2023-02-11T02:02:32;26.92;;;12.95;;
64712;SDS011;51140;45.340;5.980;2023-02-11T02:05:54;23.58;;;12.35;;
64712;SDS011;51140;45.340;5.980;2023-02-11T02:10:27;24.55;;;12.13;;
64712;SDS011;51140;45.340;5.980;2023-02-11T02:12:53;27.88;;;12.80;;
64712;SDS011;51140;45.340;5.980;2023-02-11T02:17:58;25.75;;;11.77;;
64712;SDS011;51140;45.340;5.980;2023-02-11T02:34:05;26.88;;;12.07;;
64712;SDS011;51140;45.340;5.980;2023-02-11T02:36:41;28.02;;;13.57;;
64712;SDS011;51140;45.340;5.980;2023-02-11T02:39:31;26.20;;;12.02;;
64712;SDS011;51140;45.340;5.980;2023-02-11T02:41:59;27.67;;;12.35;;
64712;SDS011;51140;45.340;5.980;2023-02-11T02:44:25;26.38;;;12.32;;
64712;SDS011;51140;45.340;5.980;2023-02-11T02:46:52;25.17;;;12.70;;
64712;SDS011;51140;45.340;5.980;2023-02-11T02:49:17;27.70;;;12.95;;
64712;SDS011;51140;45.340;5.980;2023-02-11T02:59:35;28.58;;;11.93;;
64712;SDS011;51140;45.340;5.980;2023-02-11T03:04:56;26.63;;;12.10;;
64712;SDS011;51140;45.340;5.980;2023-02-11T03:07:40;25.80;;;13.13;;
64712;SDS011;51140;45.340;5.980;2023-02-11T03:10:13;27.38;;;14.38;;
64712;SDS011;51140;45.340;5.980;2023-02-11T03:12:43;29.73;;;15.75;;
64712;SDS011;51140;45.340;5.980;2023-02-11T03:15:11;36.00;;;16.10;;
64712;SDS011;51140;45.340;5.980;2023-02-11T03:17:40;28.63;;;14.80;;
64712;SDS011;51140;45.340;5.980;2023-02-11T03:20:09;25.52;;;12.25;;
64712;SDS011;51140;45.340;5.980;2023-02-11T03:25:33;28.15;;;12.30;;
64712;SDS011;51140;45.340;5.980;2023-02-11T03:28:11;30.63;;;14.02;;
64712;SDS011;51140;45.340;5.980;2023-02-11T03:30:46;28.15;;;12.38;;
64712;SDS011;51140;45.340;5.980;2023-02-11T03:33:24;28.58;;;12.90;;
64712;SDS011;51140;45.340;5.980;2023-02-11T03:36:03;24.88;;;12.13;;
64712;SDS011;51140;45.340;5.980;2023-02-11T03:38:36;23.85;;;11.77;;
64712;SDS011;51140;45.340;5.980;2023-02-11T03:41:05;27.17;;;11.70;;
64712;SDS011;51140;45.340;5.980;2023-02-11T03:43:34;25.55;;;11.75;;
64712;SDS011;51140;45.340;5.980;2023-02-11T03:46:04;25.27;;;12.00;;
64712;SDS011;51140;45.340;5.980;2023-02-11T03:48:38;25.27;;;11.60;;
64712;SDS011;51140;45.340;5.980;2023-02-11T03:51:08;27.50;;;12.27;;
64712;SDS011;51140;45.340;5.980;2023-02-11T03:53:36;21.60;;;11.05;;
64712;SDS011;51140;45.340;5.980;2023-02-11T03:56:05;23.45;;;11.27;;
64712;SDS011;51140;45.340;5.980;2023-02-11T03:58:35;25.70;;;13.05;;
64712;SDS011;51140;45.340;5.980;2023-02-11T04:01:00;28.88;;;12.13;;
64712;SDS011;51140;45.340;5.980;2023-02-11T04:03:26;25.98;;;12.18;;
64712;SDS011;51140;45.340;5.980;2023-02-11T04:05:52;25.73;;;11.95;;
64712;SDS011;51140;45.340;5.980;2023-02-11T04:08:18;24.67;;;11.77;;
64712;SDS011;51140;45.340;5.980;2023-02-11T04:10:44;24.25;;;12.20;;
64712;SDS011;51140;45.340;5.980;2023-02-11T04:13:10;26.00;;;12.05;;
64712;SDS011;51140;45.340;5.980;2023-02-11T04:15:35;23.45;;;11.88;;
64712;SDS011;51140;45.340;5.980;2023-02-11T04:18:01;28.02;;;12.00;;
64712;SDS011;51140;45.340;5.980;2023-02-11T04:20:27;22.63;;;11.57;;
64712;SDS011;51140;45.340;5.980;2023-02-11T04:22:53;25.63;;;11.57;;
64712;SDS011;51140;45.340;5.980;2023-02-11T04:25:18;26.13;;;12.02;;
64712;SDS011;51140;45.340;5.980;2023-02-11T04:27:44;28.00;;;12.52;;
64712;SDS011;51140;45.340;5.980;2023-02-11T04:30:09;24.13;;;11.60;;
64712;SDS011;51140;45.340;5.980;2023-02-11T04:32:36;24.20;;;11.85;;
64712;SDS011;51140;45.340;5.980;2023-02-11T04:35:01;26.20;;;11.48;;
64712;SDS011;51140;45.340;5.980;2023-02-11T04:37:27;25.27;;;10.77;;
64712;SDS011;51140;45.340;5.980;2023-02-11T04:39:52;38.42;;;11.95;;
64712;SDS011;51140;45.340;5.980;2023-02-11T04:42:18;30.33;;;12.48;;
64712;SDS011;51140;45.340;5.980;2023-02-11T04:44:43;24.63;;;12.23;;
64712;SDS011;51140;45.340;5.980;2023-02-11T04:47:09;26.13;;;11.93;;
64712;SDS011;51140;45.340;5.980;2023-02-11T04:49:36;26.02;;;11.85;;
64712;SDS011;51140;45.340;5.980;2023-02-11T04:52:02;28.17;;;12.73;;
64712;SDS011;51140;45.340;5.980;2023-02-11T04:54:27;23.70;;;11.38;;
64712;SDS011;51140;45.340;5.980;2023-02-11T04:56:52;26.45;;;12.18;;
64712;SDS011;51140;45.340;5.980;2023-02-11T04:59:18;29.00;;;12.38;;
64712;SDS011;51140;45.340;5.980;2023-02-11T05:01:43;24.48;;;12.35;;
64712;SDS011;51140;45.340;5.980;2023-02-11T05:04:09;26.70;;;12.10;;
64712;SDS011;51140;45.340;5.980;2023-02-11T05:06:34;25.52;;;11.98;;
64712;SDS011;51140;45.340;5.980;2023-02-11T05:08:59;28.80;;;12.25;;
64712;SDS011;51140;45.340;5.980;2023-02-11T05:11:25;25.17;;;12.18;;
64712;SDS011;51140;45.340;5.980;2023-02-11T05:13:51;24.52;;;11.90;;
64712;SDS011;51140;45.340;5.980;2023-02-11T05:16:16;24.75;;;11.93;;
64712;SDS011;51140;45.340;5.980;2023-02-11T05:18:43;26.90;;;12.15;;
64712;SDS011;51140;45.340;5.980;2023-02-11T05:21:13;27.25;;;11.75;;
64712;SDS011;51140;45.340;5.980;2023-02-11T05:23:40;22.60;;;11.13;;
64712;SDS011;51140;45.340;5.980;2023-02-11T05:26:06;30.20;;;11.60;;
64712;SDS011;51140;45.340;5.980;2023-02-11T05:28:33;22.60;;;10.95;;
64712;SDS011;51140;45.340;5.980;2023-02-11T05:30:59;23.67;;;11.63;;
64712;SDS011;51140;45.340;5.980;2023-02-11T05:33:25;29.15;;;12.43;;
64712;SDS011;51140;45.340;5.980;2023-02-11T05:35:50;25.08;;;12.23;;
64712;SDS011;51140;45.340;5.980;2023-02-11T05:38:15;27.42;;;12.35;;
64712;SDS011;51140;45.340;5.980;2023-02-11T05:40:41;29.92;;;12.98;;
64712;SDS011;51140;45.340;5.980;2023-02-11T05:43:07;24.70;;;11.52;;
64712;SDS011;51140;45.340;5.980;2023-02-11T05:45:32;25.13;;;12.15;;
64712;SDS011;51140;45.340;5.980;2023-02-11T05:47:58;23.05;;;10.93;;
64712;SDS011;51140;45.340;5.980;2023-02-11T05:50:23;24.42;;;11.30;;
64712;SDS011;51140;45.340;5.980;2023-02-11T05:52:49;28.83;;;12.75;;
64712;SDS011;51140;45.340;5.980;2023-02-11T05:55:15;23.42;;;11.80;;
64712;SDS011;51140;45.340;5.980;2023-02-11T05:57:40;24.83;;;11.90;;
64712;SDS011;51140;45.340;5.980;2023-02-11T06:00:06;27.73;;;11.13;;
64712;SDS011;51140;45.340;5.980;2023-02-11T06:02:32;28.98;;;12.27;;
64712;SDS011;51140;45.340;5.980;2023-02-11T06:04:58;23.13;;;11.02;;
64712;SDS011;51140;45.340;5.980;2023-02-11T06:07:23;24.50;;;12.10;;
64712;SDS011;51140;45.340;5.980;2023-02-11T06:09:49;25.98;;;11.07;;
64712;SDS011;51140;45.340;5.980;2023-02-11T06:12:14;27.65;;;12.55;;
64712;SDS011;51140;45.340;5.980;2023-02-11T06:14:40;25.75;;;12.30;;
64712;SDS011;51140;45.340;5.980;2023-02-11T06:17:05;24.80;;;11.82;;
64712;SDS011;51140;45.340;5.980;2023-02-11T06:19:31;26.77;;;12.07;;
64712;SDS011;51140;45.340;5.980;2023-02-11T06:21:56;34.67;;;14.52;;
64712;SDS011;51140;45.340;5.980;2023-02-11T06:24:22;29.08;;;14.32;;
64712;SDS011;51140;45.340;5.980;2023-02-11T06:26:48;26.33;;;13.07;;
64712;SDS011;51140;45.340;5.980;2023-02-11T06:29:13;26.90;;;13.13;;
64712;SDS011;51140;45.340;5.980;2023-02-11T06:31:39;24.42;;;12.30;;
64712;SDS011;51140;45.340;5.980;2023-02-11T06:34:05;24.35;;;11.50;;
64712;SDS011;51140;45.340;5.980;2023-02-11T06:36:31;29.10;;;12.88;;
64712;SDS011;51140;45.340;5.980;2023-02-11T06:38:57;22.25;;;11.32;;
64712;SDS011;51140;45.340;5.980;2023-02-11T06:41:22;25.77;;;12.80;;
64712;SDS011;51140;45.340;5.980;2023-02-11T06:43:48;26.17;;;13.13;;
64712;SDS011;51140;45.340;5.980;2023-02-11T06:46:13;27.20;;;13.95;;
64712;SDS011;51140;45.340;5.980;2023-02-11T06:48:39;27.77;;;13.52;;
64712;SDS011;51140;45.340;5.980;2023-02-11T06:51:06;26.67;;;12.65;;
64712;SDS011;51140;45.340;5.980;2023-02-11T06:53:34;27.85;;;12.82;;
64712;SDS011;51140;45.340;5.980;2023-02-11T06:56:01;25.60;;;12.35;;
64712;SDS011;51140;45.340;5.980;2023-02-11T06:58:28;22.70;;;10.27;;
64712;SDS011;51140;45.340;5.980;2023-02-11T07:00:53;25.52;;;12.13;;
64712;SDS011;51140;45.340;5.980;2023-02-11T07:03:19;22.05;;;11.48;;
64712;SDS011;51140;45.340;5.980;2023-02-11T07:05:44;27.52;;;12.18;;
64712;SDS011;51140;45.340;5.980;2023-02-11T07:08:10;28.10;;;12.27;;
64712;SDS011;51140;45.340;5.980;2023-02-11T07:10:35;28.63;;;12.98;;
64712;SDS011;51140;45.340;5.980;2023-02-11T07:13:01;25.55;;;12.55;;
64712;SDS011;51140;45.340;5.980;2023-02-11T07:15:26;26.60;;;12.23;;
64712;SDS011;51140;45.340;5.980;2023-02-11T07:17:51;29.58;;;13.30;;
64712;SDS011;51140;45.340;5.980;2023-02-11T07:20:17;26.30;;;12.65;;
64712;SDS011;51140;45.340;5.980;2023-02-11T07:22:42;27.65;;;13.70;;
64712;SDS011;51140;45.340;5.980;2023-02-11T07:25:07;29.33;;;15.50;;
64712;SDS011;51140;45.340;5.980;2023-02-11T07:27:33;32.58;;;15.32;;
64712;SDS011;51140;45.340;5.980;2023-02-11T07:29:58;35.03;;;18.60;;
64712;SDS011;51140;45.340;5.980;2023-02-11T07:32:24;34.85;;;16.55;;
64712;SDS011;51140;45.340;5.980;2023-02-11T07:34:49;31.90;;;17.55;;
64712;SDS011;51140;45.340;5.980;2023-02-11T07:37:14;25.90;;;12.70;;
64712;SDS011;51140;45.340;5.980;2023-02-11T07:39:40;33.90;;;14.02;;
64712;SDS011;51140;45.340;5.980;2023-02-11T07:42:05;36.75;;;18.20;;
64712;SDS011;51140;45.340;5.980;2023-02-11T07:44:31;31.08;;;15.55;;
64712;SDS011;51140;45.340;5.980;2023-02-11T07:46:57;34.20;;;17.35;;
64712;SDS011;51140;45.340;5.980;2023-02-11T07:49:23;33.03;;;16.90;;
64712;SDS011;51140;45.340;5.980;2023-02-11T07:51:49;31.23;;;14.85;;
64712;SDS011;51140;45.340;5.980;2023-02-11T07:54:15;29.83;;;12.55;;
64712;SDS011;51140;45.340;5.980;2023-02-11T07:56:41;27.40;;;12.52;;
64712;SDS011;51140;45.340;5.980;2023-02-11T07:59:06;31.00;;;12.98;;
64712;SDS011;51140;45.340;5.980;2023-02-11T08:01:32;37.45;;;17.73;;
64712;SDS011;51140;45.340;5.980;2023-02-11T08:03:58;36.42;;;19.77;;
64712;SDS011;51140;45.340;5.980;2023-02-11T08:06:25;33.67;;;17.60;;
64712;SDS011;51140;45.340;5.980;2023-02-11T08:08:53;35.58;;;17.92;;
64712;SDS011;51140;45.340;5.980;2023-02-11T08:11:22;35.80;;;18.38;;
64712;SDS011;51140;45.340;5.980;2023-02-11T08:13:50;35.97;;;18.23;;
64712;SDS011;51140;45.340;5.980;2023-02-11T08:16:20;37.53;;;20.35;;
64712;SDS011;51140;45.340;5.980;2023-02-11T08:18:50;34.78;;;14.82;;
64712;SDS011;51140;45.340;5.980;2023-02-11T08:21:17;32.55;;;14.80;;
64712;SDS011;51140;45.340;5.980;2023-02-11T08:23:44;27.98;;;13.65;;
64712;SDS011;51140;45.340;5.980;2023-02-11T08:26:11;26.15;;;13.52;;
64712;SDS011;51140;45.340;5.980;2023-02-11T08:28:44;30.80;;;14.65;;
64712;SDS011;51140;45.340;5.980;2023-02-11T08:31:11;31.65;;;14.98;;
64712;SDS011;51140;45.340;5.980;2023-02-11T08:33:38;36.45;;;16.80;;
64712;SDS011;51140;45.340;5.980;2023-02-11T08:36:18;36.50;;;16.30;;
64712;SDS011;51140;45.340;5.980;2023-02-11T08:38:45;33.80;;;16.45;;
64712;SDS011;51140;45.340;5.980;2023-02-11T08:41:11;38.03;;;17.63;;
64712;SDS011;51140;45.340;5.980;2023-02-11T08:43:39;40.10;;;22.98;;
64712;SDS011;51140;45.340;5.980;2023-02-11T08:46:06;43.20;;;21.75;;
64712;SDS011;51140;45.340;5.980;2023-02-11T08:48:32;37.90;;;19.42;;
64712;SDS011;51140;45.340;5.980;2023-02-11T08:50:57;38.13;;;19.27;;
64712;SDS011;51140;45.340;5.980;2023-02-11T08:53:23;36.33;;;18.55;;
64712;SDS011;51140;45.340;5.980;2023-02-11T08:55:52;36.88;;;17.17;;
64712;SDS011;51140;45.340;5.980;2023-02-11T08:58:19;39.03;;;18.40;;
64712;SDS011;51140;45.340;5.980;2023-02-11T09:00:46;35.55;;;17.85;;
64712;SDS011;51140;45.340;5.980;2023-02-11T09:03:13;33.28;;;18.70;;
64712;SDS011;51140;45.340;5.980;2023-02-11T09:05:42;47.08;;;27.20;;
64712;SDS011;51140;45.340;5.980;2023-02-11T09:08:09;34.90;;;18.15;;
64712;SDS011;51140;45.340;5.980;2023-02-11T09:10:35;34.03;;;17.38;;
64712;SDS011;51140;45.340;5.980;2023-02-11T09:13:01;27.27;;;12.82;;
64712;SDS011;51140;45.340;5.980;2023-02-11T09:15:27;28.45;;;14.07;;
64712;SDS011;51140;45.340;5.980;2023-02-11T09:17:52;31.50;;;15.73;;
64712;SDS011;51140;45.340;5.980;2023-02-11T09:20:18;31.48;;;15.65;;
64712;SDS011;51140;45.340;5.980;2023-02-11T09:22:43;23.52;;;12.68;;
64712;SDS011;51140;45.340;5.980;2023-02-11T09:25:09;25.02;;;13.32;;
64712;SDS011;51140;45.340;5.980;2023-02-11T09:27:35;21.45;;;12.75;;
64712;SDS011;51140;45.340;5.980;2023-02-11T09:30:00;25.08;;;11.07;;
64712;SDS011;51140;45.340;5.980;2023-02-11T09:32:26;27.52;;;11.98;;
64712;SDS011;51140;45.340;5.980;2023-02-11T09:34:51;26.27;;;12.98;;
64712;SDS011;51140;45.340;5.980;2023-02-11T09:37:16;25.67;;;12.18;;
64712;SDS011;51140;45.340;5.980;2023-02-11T09:39:42;31.27;;;12.43;;
64712;SDS011;51140;45.340;5.980;2023-02-11T09:44:59;23.83;;;10.45;;
64712;SDS011;51140;45.340;5.980;2023-02-11T09:47:31;20.63;;;10.32;;
64712;SDS011;51140;45.340;5.980;2023-02-11T09:50:11;24.42;;;12.23;;
64712;SDS011;51140;45.340;5.980;2023-02-11T09:53:12;22.30;;;10.75;;
64712;SDS011;51140;45.340;5.980;2023-02-11T09:55:45;24.65;;;11.88;;
64712;SDS011;51140;45.340;5.980;2023-02-11T09:58:13;24.27;;;10.68;;
64712;SDS011;51140;45.340;5.980;2023-02-11T10:05:47;20.50;;;10.70;;
64712;SDS011;51140;45.340;5.980;2023-02-11T10:13:53;26.25;;;11.18;;
64712;SDS011;51140;45.340;5.980;2023-02-11T10:22:09;21.42;;;11.82;;
64712;SDS011;51140;45.340;5.980;2023-02-11T10:24:48;27.83;;;15.55;;
64712;SDS011;51140;45.340;5.980;2023-02-11T10:27:19;24.33;;;12.48;;
64712;SDS011;51140;45.340;5.980;2023-02-11T10:29:52;26.02;;;13.50;;
64712;SDS011;51140;45.340;5.980;2023-02-11T10:32:28;23.23;;;12.63;;
64712;SDS011;51140;45.340;5.980;2023-02-11T10:35:15;21.90;;;12.35;;
64712;SDS011;51140;45.340;5.980;2023-02-11T10:37:43;22.42;;;12.07;;
64712;SDS011;51140;45.340;5.980;2023-02-11T10:40:15;23.17;;;12.88;;
64712;SDS011;51140;45.340;5.980;2023-02-11T10:42:53;24.73;;;12.25;;
64712;SDS011;51140;45.340;5.980;2023-02-11T10:45:31;20.63;;;11.85;;
64712;SDS011;51140;45.340;5.980;2023-02-11T10:48:05;28.10;;;11.93;;
64712;SDS011;51140;45.340;5.980;2023-02-11T10:51:06;21.77;;;12.48;;
64712;SDS011;51140;45.340;5.980;2023-02-11T10:53:31;25.25;;;13.95;;
64712;SDS011;51140;45.340;5.980;2023-02-11T10:55:58;23.27;;;13.43;;
64712;SDS011;51140;45.340;5.980;2023-02-11T10:58:31;24.23;;;13.98;;
64712;SDS011;51140;45.340;5.980;2023-02-11T11:01:09;29.52;;;18.83;;
64712;SDS011;51140;45.340;5.980;2023-02-11T11:03:37;24.67;;;14.60;;
64712;SDS011;51140;45.340;5.980;2023-02-11T11:06:09;26.20;;;15.38;;
64712;SDS011;51140;45.340;5.980;2023-02-11T11:11:04;26.17;;;15.32;;
64712;SDS011;51140;45.340;5.980;2023-02-11T11:14:14;29.00;;;18.05;;
64712;SDS011;51140;45.340;5.980;2023-02-11T11:16:27;30.27;;;15.98;;
64712;SDS011;51140;45.340;5.980;2023-02-11T11:24:26;28.88;;;17.20;;
64712;SDS011;51140;45.340;5.980;2023-02-11T11:26:58;25.15;;;14.50;;
64712;SDS011;51140;45.340;5.980;2023-02-11T11:29:35;24.75;;;14.63;;
64712;SDS011;51140;45.340;5.980;2023-02-11T11:32:04;25.00;;;14.05;;
64712;SDS011;51140;45.340;5.980;2023-02-11T11:34:47;22.65;;;13.82;;
64712;SDS011;51140;45.340;5.980;2023-02-11T11:37:23;28.38;;;15.15;;
64712;SDS011;51140;45.340;5.980;2023-02-11T11:39:54;24.35;;;14.45;;
64712;SDS011;51140;45.340;5.980;2023-02-11T11:42:25;28.73;;;15.90;;
64712;SDS011;51140;45.340;5.980;2023-02-11T11:44:59;27.48;;;15.77;;
64712;SDS011;51140;45.340;5.980;2023-02-11T11:50:43;26.40;;;14.20;;
64712;SDS011;51140;45.340;5.980;2023-02-11T11:53:20;24.58;;;13.63;;
64712;SDS011;51140;45.340;5.980;2023-02-11T11:55:54;25.50;;;15.23;;
64712;SDS011;51140;45.340;5.980;2023-02-11T11:58:40;24.60;;;14.30;;
64712;SDS011;51140;45.340;5.980;2023-02-11T12:06:40;23.88;;;13.98;;
64712;SDS011;51140;45.340;5.980;2023-02-11T12:09:19;22.13;;;13.40;;
64712;SDS011;51140;45.340;5.980;2023-02-11T12:28:32;25.20;;;11.63;;
64712;SDS011;51140;45.340;5.980;2023-02-11T12:36:16;23.58;;;13.65;;
64712;SDS011;51140;45.340;5.980;2023-02-11T12:39:31;23.77;;;13.67;;
64712;SDS011;51140;45.340;5.980;2023-02-11T12:44:48;24.17;;;13.35;;
64712;SDS011;51140;45.340;5.980;2023-02-11T12:47:38;27.30;;;15.85;;
64712;SDS011;51140;45.340;5.980;2023-02-11T12:53:09;27.38;;;16.25;;
64712;SDS011;51140;45.340;5.980;2023-02-11T12:56:08;30.92;;;17.63;;
64712;SDS011;51140;45.340;5.980;2023-02-11T12:58:44;28.85;;;17.15;;
64712;SDS011;51140;45.340;5.980;2023-02-11T13:01:19;29.63;;;17.25;;
64712;SDS011;51140;45.340;5.980;2023-02-11T13:03:52;29.40;;;17.05;;
64712;SDS011;51140;45.340;5.980;2023-02-11T13:06:24;29.75;;;17.33;;
64712;SDS011;51140;45.340;5.980;2023-02-11T13:08:58;31.20;;;17.52;;
64712;SDS011;51140;45.340;5.980;2023-02-11T13:11:28;34.42;;;18.23;;
64712;SDS011;51140;45.340;5.980;2023-02-11T13:16:42;30.55;;;17.05;;
64712;SDS011;51140;45.340;5.980;2023-02-11T13:24:25;26.75;;;13.60;;
64712;SDS011;51140;45.340;5.980;2023-02-11T13:33:37;29.40;;;15.93;;
64712;SDS011;51140;45.340;5.980;2023-02-11T13:38:26;29.95;;;15.68;;
64712;SDS011;51140;45.340;5.980;2023-02-11T13:41:14;28.75;;;15.32;;
64712;SDS011;51140;45.340;5.980;2023-02-11T13:44:00;27.17;;;15.65;;
64712;SDS011;51140;45.340;5.980;2023-02-11T13:46:26;26.48;;;15.80;;
64712;SDS011;51140;45.340;5.980;2023-02-11T13:48:54;29.80;;;15.50;;
64712;SDS011;51140;45.340;5.980;2023-02-11T13:51:41;29.55;;;15.15;;
64712;SDS011;51140;45.340;5.980;2023-02-11T13:54:06;31.80;;;15.25;;
64712;SDS011;51140;45.340;5.980;2023-02-11T13:56:43;27.38;;;16.02;;
64712;SDS011;51140;45.340;5.980;2023-02-11T14:10:53;31.83;;;17.25;;
64712;SDS011;51140;45.340;5.980;2023-02-11T14:15:47;29.08;;;15.82;;
64712;SDS011;51140;45.340;5.980;2023-02-11T14:37:32;28.00;;;15.20;;
64712;SDS011;51140;45.340;5.980;2023-02-11T14:40:28;27.38;;;15.43;;
64712;SDS011;51140;45.340;5.980;2023-02-11T14:43:00;28.50;;;14.98;;
64712;SDS011;51140;45.340;5.980;2023-02-11T14:45:36;26.98;;;14.88;;
64712;SDS011;51140;45.340;5.980;2023-02-11T14:48:03;28.20;;;15.65;;
64712;SDS011;51140;45.340;5.980;2023-02-11T14:53:03;29.58;;;16.10;;
64712;SDS011;51140;45.340;5.980;2023-02-11T14:55:32;26.27;;;15.30;;
64712;SDS011;51140;45.340;5.980;2023-02-11T14:58:12;29.33;;;16.30;;
64712;SDS011;51140;45.340;5.980;2023-02-11T15:00:49;28.35;;;15.32;;
64712;SDS011;51140;45.340;5.980;2023-02-11T15:03:46;27.38;;;14.48;;
64712;SDS011;51140;45.340;5.980;2023-02-11T15:06:15;27.10;;;15.07;;
64712;SDS011;51140;45.340;5.980;2023-02-11T15:11:25;24.23;;;14.43;;
64712;SDS011;51140;45.340;5.980;2023-02-11T15:13:52;30.25;;;15.35;;
64712;SDS011;51140;45.340;5.980;2023-02-11T15:16:19;29.27;;;15.77;;
64712;SDS011;51140;45.340;5.980;2023-02-11T15:18:49;25.77;;;14.32;;
64712;SDS011;51140;45.340;5.980;2023-02-11T15:21:24;29.50;;;15.18;;
64712;SDS011;51140;45.340;5.980;2023-02-11T15:23:59;24.70;;;14.77;;
64712;SDS011;51140;45.340;5.980;2023-02-11T15:26:30;26.08;;;13.32;;
64712;SDS011;51140;45.340;5.980;2023-02-11T15:28:56;27.67;;;15.10;;
64712;SDS011;51140;45.340;5.980;2023-02-11T15:31:22;25.42;;;14.57;;
64712;SDS011;51140;45.340;5.980;2023-02-11T15:33:50;27.83;;;14.75;;
64712;SDS011;51140;45.340;5.980;2023-02-11T15:36:16;30.15;;;16.08;;
64712;SDS011;51140;45.340;5.980;2023-02-11T15:38:44;27.95;;;14.82;;
64712;SDS011;51140;45.340;5.980;2023-02-11T15:41:31;32.50;;;16.75;;
64712;SDS011;51140;45.340;5.980;2023-02-11T15:43:59;31.15;;;15.15;;
64712;SDS011;51140;45.340;5.980;2023-02-11T15:46:24;29.88;;;16.13;;
64712;SDS011;51140;45.340;5.980;2023-02-11T15:49:02;32.80;;;17.27;;
64712;SDS011;51140;45.340;5.980;2023-02-11T15:51:31;32.95;;;17.63;;
64712;SDS011;51140;45.340;5.980;2023-02-11T15:54:01;29.98;;;16.90;;
64712;SDS011;51140;45.340;5.980;2023-02-11T15:56:39;29.05;;;17.17;;
64712;SDS011;51140;45.340;5.980;2023-02-11T15:59:14;32.17;;;16.05;;
64712;SDS011;51140;45.340;5.980;2023-02-11T16:01:40;31.48;;;18.10;;
64712;SDS011;51140;45.340;5.980;2023-02-11T16:04:06;33.97;;;16.50;;
64712;SDS011;51140;45.340;5.980;2023-02-11T16:06:41;29.70;;;15.50;;
64712;SDS011;51140;45.340;5.980;2023-02-11T16:11:34;31.73;;;17.27;;
64712;SDS011;51140;45.340;5.980;2023-02-11T16:14:15;31.15;;;16.33;;
64712;SDS011;51140;45.340;5.980;2023-02-11T16:16:47;32.78;;;18.65;;
64712;SDS011;51140;45.340;5.980;2023-02-11T16:19:18;36.03;;;18.70;;
64712;SDS011;51140;45.340;5.980;2023-02-11T16:21:45;28.02;;;14.02;;
64712;SDS011;51140;45.340;5.980;2023-02-11T16:24:31;25.17;;;13.60;;
64712;SDS011;51140;45.340;5.980;2023-02-11T16:26:59;25.85;;;13.48;;
64712;SDS011;51140;45.340;5.980;2023-02-11T16:29:27;26.70;;;13.82;;
64712;SDS011;51140;45.340;5.980;2023-02-11T16:34:30;21.98;;;12.07;;
64712;SDS011;51140;45.340;5.980;2023-02-11T16:36:55;28.17;;;13.98;;
64712;SDS011;51140;45.340;5.980;2023-02-11T16:39:20;26.83;;;13.65;;
64712;SDS011;51140;45.340;5.980;2023-02-11T16:41:46;29.90;;;14.20;;
64712;SDS011;51140;45.340;5.980;2023-02-11T16:44:14;31.27;;;15.07;;
64712;SDS011;51140;45.340;5.980;2023-02-11T16:46:40;28.30;;;13.77;;
64712;SDS011;51140;45.340;5.980;2023-02-11T16:49:09;25.70;;;13.68;;
64712;SDS011;51140;45.340;5.980;2023-02-11T16:51:41;25.80;;;13.85;;
64712;SDS011;51140;45.340;5.980;2023-02-11T16:54:13;30.88;;;14.20;;
64712;SDS011;51140;45.340;5.980;2023-02-11T16:56:40;26.90;;;13.73;;
64712;SDS011;51140;45.340;5.980;2023-02-11T16:59:06;25.77;;;13.25;;
64712;SDS011;51140;45.340;5.980;2023-02-11T17:01:32;26.98;;;13.93;;
64712;SDS011;51140;45.340;5.980;2023-02-11T17:03:58;28.83;;;13.88;;
64712;SDS011;51140;45.340;5.980;2023-02-11T17:06:24;24.80;;;12.60;;
64712;SDS011;51140;45.340;5.980;2023-02-11T17:08:49;25.70;;;11.88;;
64712;SDS011;51140;45.340;5.980;2023-02-11T17:11:15;23.98;;;11.85;;
64712;SDS011;51140;45.340;5.980;2023-02-11T17:13:41;25.95;;;11.85;;
64712;SDS011;51140;45.340;5.980;2023-02-11T17:16:10;33.33;;;15.55;;